| time (UTC) | temp C | wind direction | speed KPH | gust KPH | rain 1hr cm | rain 24hr cm | rain mn cm | humidity % | barometer mb |
| 20260903113120 | 16 | 318 | 4.8 | 14.5 | 0.00 | 0.00 | 0.00 | 83 | 1014.2 |
| 20260903112608 | 16 | 328 | 4.8 | 14.5 | 0.00 | 0.00 | 0.00 | 83 | 1014.0 |
| 20260903112043 | 16 | 288 | 6.4 | 16.1 | 0.00 | 0.00 | 0.00 | 84 | 1014.1 |
| 20260903111527 | 16 | 304 | 4.8 | 16.1 | 0.00 | 0.00 | 0.00 | 84 | 1014.1 |
| 20260903111028 | 15 | 312 | 4.8 | 16.1 | 0.00 | 0.00 | 0.00 | 85 | 1014.0 |
| 20260903110523 | 15 | 342 | 4.8 | 12.9 | 0.00 | 0.00 | 0.00 | 86 | 1014.1 |
| 20260903110018 | 15 | 292 | 6.4 | 11.3 | 0.00 | 0.00 | 0.00 | 87 | 1014.0 |
| 20260903105514 | 15 | 274 | 8.0 | 16.1 | 0.00 | 0.00 | 0.00 | 87 | 1013.9 |
| 20260903105010 | 15 | 278 | 8.0 | 16.1 | 0.00 | 0.00 | 0.00 | 88 | 1014.0 |
| 20260903104511 | 14 | 262 | 6.4 | 12.9 | 0.00 | 0.00 | 0.00 | 89 | 1013.8 |
| 20260903104007 | 14 | 263 | 4.8 | 11.3 | 0.00 | 0.00 | 0.00 | 91 | 1013.7 |
| 20260903103508 | 13 | 262 | 1.6 | 9.7 | 0.00 | 0.00 | 0.00 | 93 | 1013.6 |
| 20260903103010 | 13 | 45 | 0.0 | 6.4 | 0.00 | 0.00 | 0.00 | 93 | 1013.4 |
| 20260903102453 | 13 | 270 | 0.0 | 4.8 | 0.00 | 0.00 | 0.00 | 93 | 1013.1 |
| 20260903102225 | 13 | 12 | 0.0 | 4.8 | 0.00 | 0.00 | 0.00 | 91 | 1013.0 |
| 20260903101426 | 13 | 135 | 0.0 | 4.8 | 0.00 | 0.00 | 0.00 | 91 | 1013.1 |
| 20260903100901 | 13 | 297 | 0.0 | 3.2 | 0.00 | 0.00 | 0.00 | 90 | 1013.1 |
| 20260903100335 | 13 | 293 | 0.0 | 3.2 | 0.00 | 0.00 | 0.00 | 89 | 1013.0 |
| 20260903095831 | 13 | 291 | 1.6 | 11.3 | 0.00 | 0.00 | 0.00 | 88 | 1012.9 |
| 20260903095329 | 13 | 297 | 3.2 | 11.3 | 0.00 | 0.00 | 0.00 | 87 | 1012.9 |
| 20260903094824 | 13 | 321 | 6.4 | 12.9 | 0.00 | 0.00 | 0.00 | 87 | 1012.8 |
| 20260903094314 | 14 | 289 | 9.7 | 16.1 | 0.00 | 0.00 | 0.00 | 87 | 1012.8 |
| 20260903093810 | 14 | 301 | 11.3 | 22.5 | 0.00 | 0.00 | 0.00 | 87 | 1012.5 |
| 20260903093246 | 13 | 293 | 12.9 | 22.5 | 0.00 | 0.00 | 0.00 | 88 | 1012.3 |
| 20260903092717 | 13 | 274 | 12.9 | 17.7 | 0.00 | 0.00 | 0.00 | 90 | 1012.1 |
| 20260903092204 | 13 | 258 | 12.9 | 20.9 | 0.00 | 0.00 | 0.00 | 92 | 1011.9 |
| 20260903091701 | 13 | 241 | 12.9 | 20.9 | 0.00 | 0.00 | 0.00 | 95 | 1011.6 |
| 20260903091149 | 12 | 241 | 9.7 | 20.9 | 0.00 | 0.00 | 0.00 | 99 | 1011.3 |
| 20260903090651 | 12 | 252 | 4.8 | 16.1 | 0.00 | 0.00 | 0.00 | 99 | 1010.6 |
| 20260903090125 | 11 | 299 | 4.8 | 11.3 | 0.00 | 0.00 | 0.00 | 99 | 1010.2 |
| 20260903085611 | 11 | 228 | 6.4 | 14.5 | 0.00 | 0.00 | 0.00 | 99 | 1009.9 |
| 20260903085114 | 10 | 252 | 6.4 | 14.5 | 0.00 | 0.00 | 0.00 | 99 | 1009.8 |
| 20260903084823 | 10 | 177 | 4.8 | 14.5 | 0.00 | 0.00 | 0.00 | 99 | 1009.4 |
| 20260903084052 | 10 | 139 | 3.2 | 9.7 | 0.00 | 0.00 | 0.00 | 99 | 1008.9 |
| 20260903083822 | 10 | 177 | 4.8 | 14.5 | 0.00 | 0.00 | 0.00 | 98 | 1008.8 |
| 20260903083053 | 10 | 62 | 3.2 | 14.5 | 0.00 | 0.00 | 0.00 | 98 | 1008.7 |
| 20260903082754 | 10 | 118 | 1.6 | 4.8 | 0.00 | 0.00 | 0.00 | 98 | 1008.8 |
| 20260903082021 | 10 | 51 | 4.8 | 12.9 | 0.00 | 0.00 | 0.00 | 99 | 1008.7 |
| 20260903081453 | 10 | 154 | 4.8 | 12.9 | 0.00 | 0.00 | 0.00 | 99 | 1008.6 |
| 20260903080926 | 10 | 126 | 3.2 | 8.0 | 0.00 | 0.00 | 0.00 | 99 | 1008.7 |
| 20260903080419 | 9 | 230 | 3.2 | 8.0 | 0.00 | 0.00 | 0.00 | 99 | 1008.8 |
| 20260903075913 | 9 | 141 | 1.6 | 6.4 | 0.00 | 0.00 | 0.00 | 98 | 1008.8 |
| 20260903075412 | 8 | 23 | 3.2 | 6.4 | 0.00 | 0.00 | 0.00 | 98 | 1008.9 |
| 20260903074844 | 8 | 292 | 1.6 | 6.4 | 0.00 | 0.00 | 0.00 | 98 | 1008.9 |
| 20260903074316 | 8 | 329 | 1.6 | 4.8 | 0.00 | 0.00 | 0.00 | 98 | 1009.0 |
| 20260903073753 | 8 | 237 | 3.2 | 6.4 | 0.00 | 0.00 | 0.00 | 98 | 1009.0 |
| 20260903073525 | 8 | 18 | 3.2 | 6.4 | 0.00 | 0.00 | 0.00 | 98 | 1009.0 |
| 20260903072754 | 8 | 337 | 3.2 | 9.7 | 0.00 | 0.00 | 0.00 | 98 | 1009.3 |
| 20260903072254 | 8 | 63 | 1.6 | 9.7 | 0.00 | 0.00 | 0.00 | 98 | 1009.4 |
| 20260903071725 | 8 | 147 | 1.6 | 6.4 | 0.00 | 0.00 | 0.00 | 98 | 1009.4 |
| 20260903071501 | 7 | 357 | 0.0 | 3.2 | 0.00 | 0.00 | 0.00 | 98 | 1009.8 |
| 20260903071221 | 7 | 300 | 0.0 | 3.2 | 0.00 | 0.00 | 0.00 | 98 | 1009.6 |
| 20260903070213 | 7 | 22 | 1.6 | 6.4 | 0.00 | 0.00 | 0.00 | 98 | 1009.8 |
| 20260903065710 | 7 | 226 | 1.6 | 6.4 | 0.00 | 0.00 | 0.00 | 98 | 1009.7 |
| 20260903065204 | 7 | 198 | 1.6 | 4.8 | 0.00 | 0.00 | 0.00 | 97 | 1009.8 |
| 20260903064908 | 7 | 47 | 0.0 | 1.6 | 0.00 | 0.00 | 0.00 | 97 | 1009.8 |
| 20260903064113 | 7 | 42 | 0.0 | 3.2 | 0.00 | 0.00 | 0.00 | 97 | 1010.1 |
| 20260903063611 | 7 | 228 | 0.0 | 3.2 | 0.00 | 0.00 | 0.00 | 97 | 1010.1 |
| 20260903063111 | 7 | 285 | 1.6 | 6.4 | 0.00 | 0.00 | 0.00 | 97 | 1010.2 |
| 20260903062841 | 7 | 79 | 1.6 | 6.4 | 0.00 | 0.00 | 0.00 | 97 | 1010.4 |
| 20260903062108 | 7 | 236 | 0.0 | 3.2 | 0.00 | 0.00 | 0.00 | 97 | 1010.4 |
| 20260903061605 | 7 | 308 | 0.0 | 3.2 | 0.00 | 0.00 | 0.00 | 97 | 1010.4 |
| 20260903061337 | 7 | 70 | 0.0 | 3.2 | 0.00 | 0.00 | 0.00 | 97 | 1010.6 |
| 20260903060536 | 8 | 142 | 0.0 | 3.2 | 0.00 | 0.00 | 0.00 | 97 | 1010.7 |
| 20260903060011 | 8 | 22 | 0.0 | 3.2 | 0.00 | 0.00 | 0.00 | 97 | 1010.8 |
| 20260903055718 | 8 | 302 | 0.0 | 1.6 | 0.00 | 0.00 | 0.00 | 97 | 1011.0 |
| 20260903054919 | 7 | 302 | 0.0 | 1.6 | 0.00 | 0.00 | 0.00 | 97 | 1010.9 |
| 20260903054409 | 7 | 302 | 0.0 | 1.6 | 0.00 | 0.00 | 0.00 | 97 | 1010.9 |
| 20260903054138 | 7 | 318 | 0.0 | 3.2 | 0.00 | 0.00 | 0.00 | 97 | 1011.1 |
| 20260903053408 | 7 | 237 | 0.0 | 3.2 | 0.00 | 0.00 | 0.00 | 97 | 1011.2 |
| 20260903052838 | 7 | 325 | 0.0 | 0.0 | 0.00 | 0.00 | 0.00 | 97 | 1011.4 |
| 20260903052311 | 8 | 325 | 0.0 | 1.6 | 0.00 | 0.00 | 0.00 | 97 | 1011.6 |
| 20260903051750 | 8 | 307 | 0.0 | 1.6 | 0.00 | 0.00 | 0.00 | 97 | 1011.6 |
| 20260903051741 | 8 | 298 | 0.0 | 0.0 | 0.00 | 0.00 | 0.00 | 97 | 1011.6 |
| 20260903050736 | 8 | 302 | 0.0 | 0.0 | 0.00 | 0.00 | 0.00 | 97 | 1011.7 |
| 20260903050235 | 8 | 302 | 0.0 | 0.0 | 0.00 | 0.00 | 0.00 | 97 | 1011.9 |
| 20260903045728 | 8 | 302 | 0.0 | 0.0 | 0.00 | 0.00 | 0.00 | 97 | 1012.0 |
| 20260903045227 | 8 | 302 | 0.0 | 1.6 | 0.00 | 0.00 | 0.00 | 97 | 1012.0 |
| 20260903044723 | 8 | 302 | 0.0 | 1.6 | 0.00 | 0.00 | 0.00 | 97 | 1012.2 |
| 20260903044431 | 8 | 302 | 0.0 | 1.6 | 0.00 | 0.00 | 0.00 | 97 | 1012.2 |
| 20260903043655 | 8 | 177 | 0.0 | 1.6 | 0.00 | 0.00 | 0.00 | 97 | 1012.5 |
| 20260903043132 | 8 | 87 | 0.0 | 1.6 | 0.00 | 0.00 | 0.00 | 97 | 1012.8 |
| 20260903042603 | 8 | 337 | 0.0 | 0.0 | 0.00 | 0.00 | 0.00 | 97 | 1012.9 |
| 20260903042307 | 8 | 337 | 0.0 | 0.0 | 0.00 | 0.00 | 0.00 | 97 | 1013.0 |
| 20260903041516 | 8 | 337 | 0.0 | 0.0 | 0.00 | 0.00 | 0.00 | 96 | 1013.0 |
| 20260903040953 | 8 | 337 | 0.0 | 0.0 | 0.00 | 0.00 | 0.00 | 97 | 1013.1 |
| 20260903040450 | 8 | 337 | 0.0 | 0.0 | 0.00 | 0.00 | 0.00 | 97 | 1013.2 |
| 20260903040204 | 9 | 337 | 0.0 | 0.0 | 0.00 | 0.00 | 0.00 | 97 | 1013.2 |
| 20260903035432 | 9 | 337 | 0.0 | 0.0 | 0.00 | 0.00 | 0.00 | 97 | 1013.2 |
| 20260903034908 | 9 | 337 | 0.0 | 0.0 | 0.00 | 0.00 | 0.00 | 97 | 1013.3 |
| 20260903034348 | 9 | 337 | 0.0 | 1.6 | 0.00 | 0.00 | 0.00 | 97 | 1013.5 |
| 20260903033822 | 9 | 337 | 0.0 | 1.6 | 0.00 | 0.00 | 0.00 | 96 | 1013.5 |
| 20260903033253 | 9 | 337 | 0.0 | 0.0 | 0.00 | 0.00 | 0.00 | 96 | 1013.7 |
| 20260903032727 | 9 | 337 | 0.0 | 0.0 | 0.00 | 0.00 | 0.00 | 96 | 1013.7 |
| 20260903032217 | 9 | 337 | 0.0 | 0.0 | 0.00 | 0.00 | 0.00 | 96 | 1013.8 |
| 20260903031717 | 9 | 337 | 0.0 | 3.2 | 0.00 | 0.00 | 0.00 | 96 | 1013.9 |
| 20260903031216 | 9 | 337 | 0.0 | 3.2 | 0.00 | 0.00 | 0.00 | 96 | 1014.0 |
| 20260903030721 | 10 | 337 | 0.0 | 0.0 | 0.00 | 0.00 | 0.00 | 96 | 1014.0 |
| 20260903030155 | 10 | 337 | 0.0 | 0.0 | 0.00 | 0.00 | 0.00 | 96 | 1013.9 |
| 20260903025643 | 10 | 337 | 0.0 | 1.6 | 0.00 | 0.00 | 0.00 | 97 | 1014.1 |
| 20260903025140 | 10 | 337 | 0.0 | 1.6 | 0.00 | 0.00 | 0.00 | 96 | 1014.0 |
| 20260903024638 | 10 | 337 | 0.0 | 1.6 | 0.00 | 0.00 | 0.00 | 96 | 1014.2 |
| 20260903024131 | 10 | 337 | 0.0 | 0.0 | 0.00 | 0.00 | 0.00 | 96 | 1014.2 |
| 20260903023834 | 10 | 337 | 0.0 | 0.0 | 0.00 | 0.00 | 0.00 | 96 | 1014.3 |
| 20260903023036 | 10 | 337 | 0.0 | 0.0 | 0.00 | 0.00 | 0.00 | 96 | 1014.4 |
| 20260903022508 | 10 | 337 | 0.0 | 0.0 | 0.00 | 0.00 | 0.00 | 96 | 1014.3 |
| 20260903021949 | 10 | 337 | 0.0 | 0.0 | 0.00 | 0.00 | 0.00 | 96 | 1014.3 |
| 20260903021449 | 10 | 337 | 0.0 | 0.0 | 0.00 | 0.00 | 0.00 | 96 | 1014.5 |
| 20260903020955 | 10 | 337 | 0.0 | 0.0 | 0.00 | 0.00 | 0.00 | 96 | 1014.6 |
| 20260903020947 | 10 | 337 | 0.0 | 0.0 | 0.00 | 0.00 | 0.00 | 96 | 1014.5 |
| 20260903020201 | 10 | 337 | 0.0 | 0.0 | 0.00 | 0.00 | 0.00 | 96 | 1014.6 |
| 20260903020039 | 10 | 337 | 0.0 | 0.0 | 0.00 | 0.00 | 0.00 | 96 | 1014.7 |
| 20260903014929 | 10 | 337 | 0.0 | 0.0 | 0.00 | 0.00 | 0.00 | 96 | 1014.9 |
| 20260903014426 | 10 | 337 | 0.0 | 0.0 | 0.00 | 0.00 | 0.00 | 95 | 1014.9 |
| 20260903013924 | 10 | 337 | 0.0 | 0.0 | 0.00 | 0.00 | 0.00 | 96 | 1014.8 |
| 20260903013357 | 11 | 337 | 0.0 | 0.0 | 0.00 | 0.00 | 0.00 | 96 | 1014.8 |
| 20260903012850 | 11 | 337 | 0.0 | 0.0 | 0.00 | 0.00 | 0.00 | 96 | 1015.0 |
| 20260903012349 | 11 | 337 | 0.0 | 0.0 | 0.00 | 0.00 | 0.00 | 95 | 1014.9 |
| 20260903011844 | 11 | 337 | 0.0 | 0.0 | 0.00 | 0.00 | 0.00 | 95 | 1014.8 |
| 20260903011344 | 11 | 337 | 0.0 | 0.0 | 0.00 | 0.00 | 0.00 | 96 | 1014.9 |
| 20260903010844 | 11 | 337 | 0.0 | 0.0 | 0.00 | 0.00 | 0.00 | 96 | 1014.9 |
| 20260903010614 | 11 | 337 | 0.0 | 0.0 | 0.00 | 0.00 | 0.00 | 96 | 1015.0 |
| 20260903010116 | 11 | 337 | 0.0 | 0.0 | 0.00 | 0.00 | 0.00 | 95 | 1015.0 |
| 20260903005339 | 11 | 337 | 0.0 | 0.0 | 0.00 | 0.00 | 0.00 | 95 | 1015.1 |
| 20260903005109 | 11 | 337 | 0.0 | 0.0 | 0.00 | 0.00 | 0.00 | 95 | 1015.1 |
| 20260903004315 | 11 | 337 | 0.0 | 0.0 | 0.00 | 0.00 | 0.00 | 95 | 1015.1 |
| 20260903003753 | 11 | 337 | 0.0 | 0.0 | 0.00 | 0.00 | 0.00 | 95 | 1015.2 |
| 20260903003526 | 11 | 337 | 0.0 | 0.0 | 0.00 | 0.00 | 0.00 | 94 | 1015.0 |
| 20260903002752 | 11 | 337 | 0.0 | 0.0 | 0.00 | 0.00 | 0.00 | 94 | 1015.0 |
| 20260903002252 | 12 | 337 | 0.0 | 0.0 | 0.00 | 0.00 | 0.00 | 94 | 1015.1 |
| 20260903001721 | 12 | 337 | 0.0 | 3.2 | 0.00 | 0.00 | 0.00 | 94 | 1015.1 |
| 20260903001157 | 12 | 337 | 0.0 | 3.2 | 0.00 | 0.00 | 0.00 | 94 | 1015.1 |
| 20260903000651 | 12 | 337 | 0.0 | 0.0 | 0.00 | 0.00 | 0.00 | 94 | 1015.1 |
| 20260903000146 | 12 | 337 | 0.0 | 0.0 | 0.00 | 0.00 | 0.00 | 93 | 1015.1 |
| 20260902235642 | 12 | 337 | 0.0 | 0.0 | 0.00 | 0.00 | 0.00 | 93 | 1015.1 |
| 20260902235114 | 12 | 337 | 0.0 | 3.2 | 0.00 | 0.00 | 0.00 | 93 | 1015.1 |
| 20260902234613 | 12 | 337 | 0.0 | 3.2 | 0.00 | 0.00 | 0.00 | 92 | 1015.1 |
| 20260902234346 | 12 | 337 | 0.0 | 3.2 | 0.00 | 0.00 | 0.00 | 93 | 1015.3 |
| 20260902233611 | 13 | 279 | 0.0 | 0.0 | 0.00 | 0.00 | 0.00 | 92 | 1015.2 |
| 20260902233112 | 13 | 279 | 0.0 | 0.0 | 0.00 | 0.00 | 0.00 | 93 | 1015.2 |
| 20260902232549 | 13 | 279 | 0.0 | 0.0 | 0.00 | 0.00 | 0.00 | 92 | 1015.2 |
| 20260902232030 | 13 | 279 | 0.0 | 0.0 | 0.00 | 0.00 | 0.00 | 92 | 1015.2 |
| 20260902231527 | 13 | 279 | 0.0 | 0.0 | 0.00 | 0.00 | 0.00 | 91 | 1015.2 |
| 20260902231027 | 13 | 279 | 0.0 | 0.0 | 0.00 | 0.00 | 0.00 | 92 | 1015.2 |
| 20260902230526 | 13 | 279 | 0.0 | 0.0 | 0.00 | 0.00 | 0.00 | 92 | 1015.2 |
| 20260902230026 | 13 | 279 | 0.0 | 0.0 | 0.00 | 0.00 | 0.00 | 92 | 1015.1 |
| 20260902225523 | 13 | 279 | 0.0 | 0.0 | 0.00 | 0.00 | 0.00 | 92 | 1015.1 |
| 20260902225005 | 14 | 279 | 0.0 | 3.2 | 0.00 | 0.00 | 0.00 | 92 | 1015.1 |
| 20260902224705 | 14 | 279 | 1.6 | 3.2 | 0.00 | 0.00 | 0.00 | 92 | 1015.0 |
| 20260902223906 | 14 | 279 | 0.0 | 3.2 | 0.00 | 0.00 | 0.00 | 91 | 1015.0 |
| 20260902223620 | 14 | 279 | 0.0 | 3.2 | 0.00 | 0.00 | 0.00 | 90 | 1014.9 |
| 20260902222849 | 15 | 279 | 1.6 | 3.2 | 0.00 | 0.00 | 0.00 | 91 | 1014.8 |
| 20260902222345 | 15 | 279 | 1.6 | 3.2 | 0.00 | 0.00 | 0.00 | 92 | 1014.8 |
| 20260902222116 | 15 | 279 | 1.6 | 3.2 | 0.00 | 0.00 | 0.00 | 91 | 1014.8 |
| 20260902221341 | 15 | 279 | 0.0 | 3.2 | 0.00 | 0.00 | 0.00 | 90 | 1014.7 |
| 20260902220843 | 15 | 279 | 1.6 | 3.2 | 0.00 | 0.00 | 0.00 | 90 | 1014.8 |
| 20260902220318 | 15 | 279 | 0.0 | 3.2 | 0.00 | 0.00 | 0.00 | 89 | 1015.0 |
| 20260902215756 | 16 | 279 | 0.0 | 0.0 | 0.00 | 0.00 | 0.00 | 88 | 1015.0 |
| 20260902215232 | 16 | 279 | 0.0 | 0.0 | 0.00 | 0.00 | 0.00 | 87 | 1015.0 |
| 20260902214707 | 16 | 279 | 0.0 | 0.0 | 0.00 | 0.00 | 0.00 | 85 | 1014.9 |
| 20260902214207 | 16 | 279 | 0.0 | 0.0 | 0.00 | 0.00 | 0.00 | 85 | 1014.9 |
| 20260902213641 | 16 | 279 | 0.0 | 1.6 | 0.00 | 0.00 | 0.00 | 85 | 1015.0 |
| 20260902213347 | 17 | 279 | 0.0 | 1.6 | 0.00 | 0.00 | 0.00 | 85 | 1014.9 |
| 20260902212615 | 17 | 279 | 0.0 | 1.6 | 0.00 | 0.00 | 0.00 | 84 | 1014.9 |
| 20260902212115 | 17 | 279 | 0.0 | 3.2 | 0.00 | 0.00 | 0.00 | 83 | 1015.0 |
| 20260902211612 | 17 | 279 | 0.0 | 3.2 | 0.00 | 0.00 | 0.00 | 83 | 1015.1 |
| 20260902211113 | 18 | 279 | 0.0 | 1.6 | 0.00 | 0.00 | 0.00 | 82 | 1015.2 |
| 20260902210549 | 18 | 279 | 1.6 | 4.8 | 0.00 | 0.00 | 0.00 | 81 | 1015.2 |
| 20260902210037 | 18 | 279 | 3.2 | 4.8 | 0.00 | 0.00 | 0.00 | 80 | 1015.2 |
| 20260902205537 | 19 | 272 | 3.2 | 4.8 | 0.00 | 0.00 | 0.00 | 78 | 1015.2 |
| 20260902205042 | 20 | 285 | 3.2 | 4.8 | 0.00 | 0.00 | 0.00 | 77 | 1015.3 |
| 20260902204513 | 21 | 285 | 3.2 | 4.8 | 0.00 | 0.00 | 0.00 | 74 | 1015.2 |
| 20260902204212 | 22 | 275 | 1.6 | 3.2 | 0.00 | 0.00 | 0.00 | 72 | 1015.2 |
| 20260902203418 | 22 | 299 | 1.6 | 4.8 | 0.00 | 0.00 | 0.00 | 69 | 1015.3 |
| 20260902202854 | 23 | 299 | 1.6 | 4.8 | 0.00 | 0.00 | 0.00 | 66 | 1015.2 |
| 20260902202347 | 23 | 317 | 1.6 | 4.8 | 0.00 | 0.00 | 0.00 | 65 | 1015.3 |
| 20260902201824 | 24 | 329 | 1.6 | 4.8 | 0.00 | 0.00 | 0.00 | 65 | 1015.3 |
| 20260902201259 | 24 | 136 | 0.0 | 0.0 | 0.00 | 0.00 | 0.00 | 64 | 1015.3 |
| 20260902200749 | 24 | 136 | 0.0 | 3.2 | 0.00 | 0.00 | 0.00 | 63 | 1015.2 |
| 20260902200224 | 23 | 136 | 0.0 | 3.2 | 0.00 | 0.00 | 0.00 | 67 | 1015.2 |
| 20260902195713 | 23 | 136 | 0.0 | 3.2 | 0.00 | 0.00 | 0.00 | 60 | 1015.3 |
| 20260902195215 | 23 | 187 | 0.0 | 3.2 | 0.00 | 0.00 | 0.00 | 61 | 1015.4 |
| 20260902194710 | 23 | 128 | 0.0 | 3.2 | 0.00 | 0.00 | 0.00 | 60 | 1015.5 |
| 20260902194209 | 23 | 270 | 0.0 | 3.2 | 0.00 | 0.00 | 0.00 | 60 | 1015.5 |
| 20260902194146 | 23 | 203 | 1.6 | 4.8 | 0.00 | 0.00 | 0.00 | 61 | 1015.6 |
| 20260902193345 | 23 | 150 | 1.6 | 8.0 | 0.00 | 0.00 | 0.00 | 61 | 1015.7 |
| 20260902192549 | 23 | 208 | 1.6 | 8.0 | 0.00 | 0.00 | 0.00 | 62 | 1015.8 |
| 20260902192543 | 23 | 147 | 1.6 | 4.8 | 0.00 | 0.00 | 0.00 | 64 | 1015.7 |
| 20260902191513 | 23 | 187 | 1.6 | 4.8 | 0.00 | 0.00 | 0.00 | 62 | 1015.7 |
| 20260902191225 | 23 | 206 | 3.2 | 9.7 | 0.00 | 0.00 | 0.00 | 63 | 1015.8 |
| 20260902190725 | 23 | 270 | 4.8 | 9.7 | 0.00 | 0.00 | 0.00 | 63 | 1015.7 |
| 20260902185951 | 23 | 243 | 3.2 | 8.0 | 0.00 | 0.00 | 0.00 | 65 | 1015.7 |
| 20260902185452 | 23 | 160 | 1.6 | 6.4 | 0.00 | 0.00 | 0.00 | 65 | 1015.7 |
| 20260902185220 | 23 | 278 | 3.2 | 11.3 | 0.00 | 0.00 | 0.00 | 61 | 1015.7 |
| 20260902184417 | 23 | 35 | 1.6 | 11.3 | 0.00 | 0.00 | 0.00 | 64 | 1015.8 |
| 20260902183917 | 23 | 312 | 3.2 | 6.4 | 0.00 | 0.00 | 0.00 | 65 | 1015.8 |
| 20260902183621 | 23 | 214 | 1.6 | 6.4 | 0.00 | 0.00 | 0.00 | 63 | 1015.9 |
| 20260902182825 | 23 | 243 | 0.0 | 4.8 | 0.00 | 0.00 | 0.00 | 64 | 1016.0 |
| 20260902182307 | 23 | 294 | 1.6 | 6.4 | 0.00 | 0.00 | 0.00 | 70 | 1016.2 |
| 20260902181807 | 23 | 291 | 1.6 | 6.4 | 0.00 | 0.00 | 0.00 | 68 | 1016.1 |
| 20260902181241 | 23 | 285 | 3.2 | 6.4 | 0.00 | 0.00 | 0.00 | 67 | 1016.1 |
| 20260902180731 | 22 | 227 | 3.2 | 6.4 | 0.00 | 0.00 | 0.00 | 67 | 1016.3 |
| 20260902180230 | 22 | 98 | 1.6 | 11.3 | 0.00 | 0.00 | 0.00 | 69 | 1016.3 |
| 20260902175729 | 22 | 102 | 1.6 | 11.3 | 0.00 | 0.00 | 0.00 | 68 | 1016.4 |
| 20260902175209 | 22 | 99 | 3.2 | 8.0 | 0.00 | 0.00 | 0.00 | 69 | 1016.4 |
| 20260902174707 | 22 | 162 | 3.2 | 9.7 | 0.00 | 0.00 | 0.00 | 68 | 1016.5 |
| 20260902174207 | 22 | 187 | 3.2 | 9.7 | 0.00 | 0.00 | 0.00 | 69 | 1016.6 |
| 20260902173936 | 22 | 118 | 3.2 | 8.0 | 0.00 | 0.00 | 0.00 | 70 | 1016.7 |
| 20260902173138 | 22 | 261 | 1.6 | 8.0 | 0.00 | 0.00 | 0.00 | 69 | 1016.8 |
| 20260902172636 | 22 | 160 | 3.2 | 11.3 | 0.00 | 0.00 | 0.00 | 70 | 1016.9 |
| 20260902172136 | 21 | 141 | 4.8 | 11.3 | 0.00 | 0.00 | 0.00 | 71 | 1017.0 |
| 20260902171627 | 21 | 157 | 3.2 | 9.7 | 0.00 | 0.00 | 0.00 | 71 | 1017.0 |
| 20260902171125 | 21 | 149 | 4.8 | 11.3 | 0.00 | 0.00 | 0.00 | 69 | 1017.1 |
| 20260902170843 | 21 | 229 | 3.2 | 11.3 | 0.00 | 0.00 | 0.00 | 73 | 1017.2 |
| 20260902170723 | 21 | 343 | 3.2 | 6.4 | 0.00 | 0.00 | 0.00 | 70 | 1017.2 |
| 20260902165825 | 21 | 285 | 3.2 | 8.0 | 0.00 | 0.00 | 0.00 | 72 | 1017.2 |
| 20260902165053 | 21 | 261 | 3.2 | 11.3 | 0.00 | 0.00 | 0.00 | 74 | 1017.4 |
| 20260902164601 | 21 | 194 | 3.2 | 11.3 | 0.00 | 0.00 | 0.00 | 71 | 1017.5 |
| 20260902164027 | 21 | 277 | 3.2 | 11.3 | 0.00 | 0.00 | 0.00 | 74 | 1017.5 |
| 20260902163505 | 21 | 242 | 1.6 | 8.0 | 0.00 | 0.00 | 0.00 | 75 | 1017.6 |
| 20260902162959 | 21 | 108 | 1.6 | 4.8 | 0.00 | 0.00 | 0.00 | 73 | 1017.8 |
| 20260902162443 | 21 | 130 | 3.2 | 6.4 | 0.00 | 0.00 | 0.00 | 74 | 1017.8 |
| 20260902161941 | 21 | 293 | 3.2 | 11.3 | 0.00 | 0.00 | 0.00 | 73 | 1018.0 |
| 20260902161440 | 21 | 248 | 3.2 | 11.3 | 0.00 | 0.00 | 0.00 | 73 | 1018.0 |
| 20260902161132 | 20 | 152 | 4.8 | 11.3 | 0.00 | 0.00 | 0.00 | 74 | 1018.2 |
| 20260902161009 | 20 | 351 | 4.8 | 11.3 | 0.00 | 0.00 | 0.00 | 76 | 1018.1 |
| 20260902155855 | 20 | 303 | 3.2 | 11.3 | 0.00 | 0.00 | 0.00 | 77 | 1018.1 |
| 20260902155324 | 20 | 278 | 3.2 | 8.0 | 0.00 | 0.00 | 0.00 | 78 | 1018.4 |
| 20260902154821 | 20 | 337 | 3.2 | 9.7 | 0.00 | 0.00 | 0.00 | 77 | 1018.3 |
| 20260902154320 | 20 | 271 | 4.8 | 11.3 | 0.00 | 0.00 | 0.00 | 76 | 1018.5 |
| 20260902153750 | 20 | 317 | 4.8 | 14.5 | 0.00 | 0.00 | 0.00 | 79 | 1018.6 |
| 20260902153223 | 20 | 299 | 4.8 | 14.5 | 0.00 | 0.00 | 0.00 | 80 | 1018.7 |
| 20260902152658 | 19 | 313 | 4.8 | 16.1 | 0.00 | 0.00 | 0.00 | 80 | 1018.7 |
| 20260902152427 | 18 | 285 | 6.4 | 16.1 | 0.00 | 0.00 | 0.00 | 79 | 1018.8 |
| 20260902151924 | 18 | 292 | 6.4 | 16.1 | 0.00 | 0.00 | 0.00 | 79 | 1018.9 |
| 20260902151120 | 18 | 289 | 8.0 | 16.1 | 0.00 | 0.00 | 0.00 | 80 | 1018.9 |
| 20260902150821 | 18 | 306 | 6.4 | 14.5 | 0.00 | 0.00 | 0.00 | 81 | 1018.9 |
| 20260902150049 | 18 | 293 | 6.4 | 14.5 | 0.00 | 0.00 | 0.00 | 81 | 1018.9 |
| 20260902145547 | 18 | 304 | 6.4 | 14.5 | 0.00 | 0.00 | 0.00 | 81 | 1019.0 |
| 20260902145019 | 18 | 249 | 4.8 | 16.1 | 0.00 | 0.00 | 0.00 | 82 | 1019.0 |
| 20260902144739 | 17 | 280 | 6.4 | 16.1 | 0.00 | 0.00 | 0.00 | 84 | 1019.1 |
| 20260902144237 | 17 | 258 | 8.0 | 16.1 | 0.00 | 0.00 | 0.00 | 82 | 1019.2 |
| 20260902143438 | 17 | 230 | 8.0 | 14.5 | 0.00 | 0.00 | 0.00 | 81 | 1019.2 |
| 20260902142908 | 17 | 285 | 6.4 | 14.5 | 0.00 | 0.00 | 0.00 | 82 | 1019.2 |
| 20260902142343 | 17 | 247 | 6.4 | 14.5 | 0.00 | 0.00 | 0.00 | 82 | 1019.3 |
| 20260902141819 | 17 | 329 | 6.4 | 14.5 | 0.00 | 0.00 | 0.00 | 81 | 1019.2 |
| 20260902141251 | 17 | 262 | 6.4 | 12.9 | 0.00 | 0.00 | 0.00 | 82 | 1019.4 |
| 20260902140739 | 17 | 294 | 6.4 | 12.9 | 0.00 | 0.00 | 0.00 | 82 | 1019.4 |
| 20260902140236 | 17 | 247 | 4.8 | 11.3 | 0.00 | 0.00 | 0.00 | 83 | 1019.6 |
| 20260902135958 | 17 | 347 | 4.8 | 14.5 | 0.00 | 0.00 | 0.00 | 83 | 1019.5 |
| 20260902135223 | 17 | 310 | 6.4 | 14.5 | 0.00 | 0.00 | 0.00 | 83 | 1019.5 |
| 20260902134723 | 17 | 330 | 6.4 | 14.5 | 0.00 | 0.00 | 0.00 | 85 | 1019.6 |
| 20260902134436 | 17 | 254 | 6.4 | 14.5 | 0.00 | 0.00 | 0.00 | 83 | 1019.6 |
| 20260902133704 | 17 | 6 | 4.8 | 12.9 | 0.00 | 0.00 | 0.00 | 85 | 1019.6 |
| 20260902133140 | 17 | 357 | 4.8 | 12.9 | 0.00 | 0.00 | 0.00 | 84 | 1019.7 |
| 20260902132846 | 16 | 271 | 4.8 | 11.3 | 0.00 | 0.00 | 0.00 | 86 | 1019.5 |
| 20260902132318 | 16 | 308 | 4.8 | 12.9 | 0.00 | 0.00 | 0.00 | 85 | 1019.5 |
| 20260902131530 | 16 | 340 | 4.8 | 12.9 | 0.00 | 0.00 | 0.00 | 86 | 1019.7 |
| 20260902131028 | 16 | 337 | 4.8 | 12.9 | 0.00 | 0.00 | 0.00 | 88 | 1019.7 |
| 20260902130527 | 16 | 283 | 6.4 | 12.9 | 0.00 | 0.00 | 0.00 | 87 | 1019.8 |
| 20260902130028 | 15 | 20 | 6.4 | 12.9 | 0.00 | 0.00 | 0.00 | 87 | 1019.8 |
| 20260902125500 | 15 | 293 | 4.8 | 12.9 | 0.00 | 0.00 | 0.00 | 87 | 1019.8 |
| 20260902124933 | 15 | 264 | 4.8 | 12.9 | 0.00 | 0.13 | 0.00 | 88 | 1020.0 |
| 20260902124426 | 15 | 328 | 4.8 | 12.9 | 0.00 | 0.13 | 0.00 | 88 | 1020.0 |
| 20260902123926 | 15 | 324 | 6.4 | 12.9 | 0.00 | 0.13 | 0.00 | 88 | 1020.0 |
| 20260902123424 | 15 | 264 | 4.8 | 12.9 | 0.00 | 0.13 | 0.00 | 88 | 1019.9 |
| 20260902122924 | 15 | 339 | 4.8 | 11.3 | 0.00 | 0.13 | 0.00 | 88 | 1020.1 |
| 20260902122422 | 15 | 312 | 3.2 | 11.3 | 0.00 | 0.13 | 0.00 | 89 | 1020.2 |
| 20260902121922 | 15 | 320 | 4.8 | 16.1 | 0.00 | 0.13 | 0.00 | 92 | 1020.2 |
| 20260902121421 | 15 | 304 | 6.4 | 16.1 | 0.00 | 0.13 | 0.00 | 93 | 1020.1 |
| 20260902121126 | 15 | 329 | 3.2 | 12.9 | 0.00 | 0.13 | 0.00 | 95 | 1019.9 |
| 20260902120329 | 14 | 283 | 1.6 | 11.3 | 0.00 | 0.13 | 0.00 | 97 | 1019.7 |
| 20260902115826 | 14 | 204 | 0.0 | 1.6 | 0.00 | 0.13 | 0.00 | 98 | 1019.7 |
| 20260902115258 | 13 | 152 | 0.0 | 3.2 | 0.00 | 0.13 | 0.00 | 99 | 1019.7 |
| 20260902114756 | 13 | 133 | 0.0 | 3.2 | 0.00 | 0.13 | 0.00 | 99 | 1019.5 |
| 20260902114528 | 13 | 129 | 0.0 | 3.2 | 0.00 | 0.13 | 0.00 | 99 | 1019.5 |
| 20260902113757 | 13 | 153 | 0.0 | 3.2 | 0.00 | 0.13 | 0.00 | 99 | 1019.6 |